• Join FlightAware (Why Join?)
  • Login
  • US Flag 
03:13PM EDT


 

Airport Tracker/Info


-or-


 

Live Flight TrackerFlight Track Log ✈ EJA922 ✈ 18-Jan-2014 ✈ KSDL - KSNA

Flight Track Log - Related Links

Times and Time Zones

All times are in EST time to prevent confusion due to time zone crossing. See the EJA922 flight status page for this flight to view local times or setup timezone preferences in your user account.

Time Position Orientation Groundspeed Altitude Reporting Facility
EST Latitude Longitude Course Direction KTS MPH feet Rate Location/Type
05:30PM 33.6167 -112.0000 265° West 227 261 6,900  Level Phoenix TRACON
05:31PM 33.6167 -112.1000 270° West 285 328 7,900 1,920 Climbing Phoenix TRACON
05:33PM 33.6122 -112.2250 268° West 301 346 11,400 2,160 Climbing Albuquerque Center
05:34PM 33.5819 -112.3364 252° West 348 400 13,000 2,040 Climbing Albuquerque Center
05:35PM 33.5508 -112.4572 253° West 377 434 15,700 2,340 Climbing Albuquerque Center
05:36PM 33.5178 -112.5783 252° West 380 437 17,800 2,040 Climbing Albuquerque Center
05:37PM 33.4839 -112.7119 253° West 391 450 19,900 1,980 Climbing Albuquerque Center
05:38PM 33.4583 -112.8414 257° West 403 464 21,900 1,800 Climbing Albuquerque Center
05:40PM 33.5086 -113.1078 283° West 417 480 25,500 1,920 Climbing Los Angeles Center
05:41PM 33.5347 -113.2433 283° West 420 483 27,800 2,040 Climbing Los Angeles Center
05:42PM 33.5603 -113.3719 283° West 414 476 29,800 1,260 Climbing Los Angeles Center
05:43PM 33.5908 -113.5400 282° West 426 490 30,500 840 Climbing Los Angeles Center
05:44PM 33.6178 -113.6869 282° West 446 513 31,600 720 Climbing Albuquerque Center
05:45PM 33.6417 -113.8408 281° West 461 531 32,000 180 Climbing Albuquerque Center
05:46PM 33.6567 -113.9986 277° West 472 543 32,000  Level Albuquerque Center
05:47PM 33.6711 -114.1558 276° West 474 545 32,000  Level Albuquerque Center
05:48PM 33.6872 -114.3169 277° West 476 548 32,000  Level Albuquerque Center
05:49PM 33.7058 -114.5014 277° West 476 548 32,000  Level Los Angeles Center
05:50PM 33.7217 -114.6589 277° West 476 548 32,000  Level Los Angeles Center
05:51PM 33.7350 -114.8161 276° West 476 548 32,000  Level Los Angeles Center
05:52PM 33.7500 -114.9722 277° West 474 545 32,000  Level Los Angeles Center
05:53PM 33.7631 -115.1292 276° West 474 545 32,000  Level Los Angeles Center
05:54PM 33.7800 -115.3181 276° West 476 548 32,000  Level Los Angeles Center
05:56PM 33.7936 -115.4767 276° West 478 550 32,000  Level Los Angeles Center
05:57PM 33.8081 -115.6625 275° West 470 541 32,000  Level Los Angeles Center
05:58PM 33.8214 -115.8200 276° West 472 543 32,000 -780 Level Los Angeles Center
05:59PM 33.8350 -115.9786 276° West 477 549 30,500 -1,380 Descending Los Angeles Center
06:00PM 33.8489 -116.1656 275° West 473 544 29,200 -2,400 Descending Los Angeles Center
06:01PM 33.8622 -116.3214 276° West 471 542 25,600 -3,300 Descending Los Angeles Center
06:02PM 33.8711 -116.4767 274° West 468 539 22,400 -3,240 Descending Los Angeles Center
06:03PM 33.8786 -116.6253 274° West 452 520 19,000 -3,180 Descending Los Angeles Center
06:04PM 33.8858 -116.7714 273° West 442 509 15,900 -2,820 Descending Los Angeles Center
06:05PM 33.8833 -116.9333 269° West 425 489 13,300 -2,280 Descending Southern California TRACON
06:06PM 33.8600 -117.0469 256° West 421 484 11,300 -1,500 Descending Los Angeles Center
06:07PM 33.8425 -117.1742 261° West 369 425 10,200 -1,200 Descending Los Angeles Center
06:08PM 33.8333 -117.2833 264° West 293 337 9,000 -1,200 Descending Southern California TRACON
06:09PM 33.8167 -117.3667 256° West 287 330 8,000 -480 Descending Southern California TRACON
06:10PM 33.8000 -117.4500 256° West 226 260 8,100  Climbing Southern California TRACON
06:11PM 33.8000 -117.5333 270° West 236 272 8,000 -480 Descending Southern California TRACON
06:12PM 33.8000 -117.6000 270° West 216 249 7,200 -1,020 Descending Southern California TRACON
06:13PM 33.8000 -117.6667 270° West 209 241 6,000 -1,140 Descending Southern California TRACON
06:14PM 33.8500 -117.7000 331° Northwest 179 206 5,000 -1,080 Descending Southern California TRACON
06:15PM 33.8500 -117.7500 270° West 187 215 3,900 -1,020 Descending Southern California TRACON
06:16PM 33.8167 -117.7833 220° Southwest 162 186 3,000 -900 Descending Southern California TRACON
06:17PM 33.7833 -117.8000 203° Southwest 152 175 2,200 -780 Descending Southern California TRACON
06:18PM 33.7500 -117.8167 203° Southwest 136 157 1,500 -720 Descending Southern California TRACON
06:19PM 33.7167 -117.8500 220° Southwest 133 153 800 -720 Descending Southern California TRACON
06:22PM 33.6757 -117.8682 132° Southeast  Level Estimated
06:29PM 33.6757 -117.8682 132° Southeast  Level Estimated